Time;durP1;ratioP1;P1;durP2;ratioP2;P2;SDS_P1;SDS_P2;PMS_P1;PMS_P2;Temp;Humidity;BMP_temperature;BMP_pressure;BME280_temperature;BME280_humidity;BME280_pressure;Samples;Min_cycle;Max_cycle;Signal;HPM_P1;HPM_P2
2023/12/21 00:03:53;;;;;;;0.60;0.60;;;;;;;;;;8233992;28;20026;-57
2023/12/21 00:07:54;;;;;;;0.60;0.60;;;;;;;;;;8232737;28;20268;-58
2023/12/21 00:11:54;;;;;;;1.13;0.40;;;;;;;;;;8232772;28;20041;-58
2023/12/21 00:15:54;;;;;;;0.50;0.50;;;;;;;;;;8232925;28;20542;-57
2023/12/21 00:19:54;;;;;;;0.50;0.50;;;;;;;;;;8231056;28;20041;-56
2023/12/21 00:23:55;;;;;;;0.43;0.43;;;;;;;;;;8231864;28;20312;-57
2023/12/21 00:27:56;;;;;;;1.45;0.75;;;;;;;;;;8229616;28;20265;-57
2023/12/21 00:31:56;;;;;;;0.50;0.50;;;;;;;;;;8219546;28;20041;-57
2023/12/21 00:35:56;;;;;;;0.50;0.50;;;;;;;;;;8217621;28;20474;-56
2023/12/21 00:39:57;;;;;;;0.52;0.52;;;;;;;;;;8220035;28;20030;-58
2023/12/21 00:43:57;;;;;;;0.40;0.40;;;;;;;;;;8223211;28;20133;-56
2023/12/21 00:47:57;;;;;;;0.45;0.45;;;;;;;;;;8217227;28;20049;-58
2023/12/21 00:51:57;;;;;;;0.50;0.50;;;;;;;;;;8222188;28;20137;-59
2023/12/21 00:55:58;;;;;;;0.40;0.40;;;;;;;;;;8223241;28;20585;-57
2023/12/21 00:59:58;;;;;;;0.35;0.35;;;;;;;;;;8223639;28;20026;-57
2023/12/21 01:03:58;;;;;;;0.50;0.50;;;;;;;;;;8219483;28;20038;-58
2023/12/21 01:07:58;;;;;;;0.50;0.50;;;;;;;;;;8221653;28;20069;-57
2023/12/21 01:11:58;;;;;;;0.75;0.50;;;;;;;;;;8225893;28;20029;-58
2023/12/21 01:15:59;;;;;;;0.47;0.47;;;;;;;;;;8224998;28;20046;-57
2023/12/21 01:19:59;;;;;;;0.50;0.50;;;;;;;;;;8224511;28;20080;-57
2023/12/21 01:23:59;;;;;;;0.30;0.30;;;;;;;;;;8226186;28;20446;-56
2023/12/21 01:27:59;;;;;;;0.40;0.40;;;;;;;;;;8229333;28;20029;-57
2023/12/21 01:32:00;;;;;;;1.27;0.40;;;;;;;;;;8226500;28;20089;-57
2023/12/21 01:36:00;;;;;;;0.30;0.30;;;;;;;;;;8227338;28;20060;-57
2023/12/21 01:40:00;;;;;;;0.50;0.50;;;;;;;;;;8226823;28;20288;-56
2023/12/21 01:44:02;;;;;;;0.40;0.40;;;;;;;;;;8225474;28;20025;-57
2023/12/21 01:48:02;;;;;;;0.40;0.40;;;;;;;;;;8227424;28;20521;-57
2023/12/21 01:52:05;;;;;;;0.40;0.40;;;;;;;;;;8228315;28;20662;-57
2023/12/21 01:56:05;;;;;;;0.50;0.50;;;;;;;;;;8225450;28;20028;-58
2023/12/21 02:00:06;;;;;;;0.30;0.30;;;;;;;;;;8229938;28;20032;-58
2023/12/21 02:04:07;;;;;;;0.40;0.40;;;;;;;;;;8226345;28;20782;-57
2023/12/21 02:08:07;;;;;;;0.77;0.47;;;;;;;;;;8228042;28;20045;-57
2023/12/21 02:12:07;;;;;;;0.32;0.32;;;;;;;;;;8227014;28;20030;-57
2023/12/21 02:16:19;;;;;;;0.33;0.33;;;;;;;;;;8220508;28;20048;-55
2023/12/21 02:20:20;;;;;;;0.40;0.40;;;;;;;;;;8223358;28;20125;-57
2023/12/21 02:24:20;;;;;;;0.47;0.47;;;;;;;;;;8226427;28;20137;-56
2023/12/21 02:28:20;;;;;;;0.40;0.40;;;;;;;;;;8226255;28;20478;-57
2023/12/21 02:32:21;;;;;;;0.47;0.47;;;;;;;;;;8220793;28;20148;-60
2023/12/21 02:36:21;;;;;;;0.40;0.40;;;;;;;;;;8223889;28;20062;-60
2023/12/21 02:40:21;;;;;;;0.40;0.40;;;;;;;;;;8223187;28;20285;-57
2023/12/21 02:44:21;;;;;;;0.40;0.40;;;;;;;;;;8228771;28;20137;-57
2023/12/21 02:48:21;;;;;;;0.40;0.40;;;;;;;;;;8225232;28;20133;-56
2023/12/21 02:52:22;;;;;;;0.40;0.40;;;;;;;;;;8217280;28;20257;-56
2023/12/21 02:56:22;;;;;;;0.40;0.40;;;;;;;;;;8223747;28;20035;-56
2023/12/21 03:00:22;;;;;;;0.40;0.40;;;;;;;;;;8223191;28;20764;-56
2023/12/21 03:04:22;;;;;;;0.45;0.45;;;;;;;;;;8223150;28;20018;-57
2023/12/21 03:08:23;;;;;;;0.30;0.30;;;;;;;;;;8225338;28;20038;-56
2023/12/21 03:12:23;;;;;;;0.40;0.40;;;;;;;;;;8222458;28;20064;-57
2023/12/21 03:16:23;;;;;;;1.45;0.50;;;;;;;;;;8225248;28;20045;-56
2023/12/21 03:20:23;;;;;;;0.40;0.40;;;;;;;;;;8218028;28;20022;-57
2023/12/21 03:24:23;;;;;;;0.40;0.40;;;;;;;;;;8223180;28;20022;-56
2023/12/21 03:28:24;;;;;;;0.40;0.40;;;;;;;;;;8225819;28;20050;-56
2023/12/21 03:32:24;;;;;;;0.50;0.50;;;;;;;;;;8219665;28;20037;-57
2023/12/21 03:36:27;;;;;;;0.40;0.40;;;;;;;;;;8222342;28;20049;-56
2023/12/21 03:40:27;;;;;;;0.30;0.30;;;;;;;;;;8223449;28;20092;-56
2023/12/21 03:44:27;;;;;;;0.40;0.40;;;;;;;;;;8220405;28;20022;-55
2023/12/21 03:48:28;;;;;;;0.57;0.57;;;;;;;;;;8220150;28;20705;-57
2023/12/21 03:52:28;;;;;;;0.40;0.35;;;;;;;;;;8219502;28;20025;-57
2023/12/21 03:56:28;;;;;;;0.30;0.30;;;;;;;;;;8222532;28;20964;-57
2023/12/21 04:00:29;;;;;;;0.40;0.40;;;;;;;;;;8230315;28;20327;-57
2023/12/21 04:04:31;;;;;;;0.80;0.50;;;;;;;;;;8239610;28;20034;-58
2023/12/21 04:08:31;;;;;;;0.40;0.40;;;;;;;;;;8238945;28;20060;-58
2023/12/21 04:12:31;;;;;;;0.32;0.32;;;;;;;;;;8222940;28;20015;-58
2023/12/21 04:16:31;;;;;;;0.30;0.30;;;;;;;;;;8216940;28;20033;-58
2023/12/21 04:20:32;;;;;;;0.40;0.40;;;;;;;;;;8228977;28;20029;-57
2023/12/21 04:24:32;;;;;;;0.40;0.40;;;;;;;;;;8220877;28;20029;-58
2023/12/21 04:28:33;;;;;;;0.43;0.43;;;;;;;;;;8220384;28;20045;-59
2023/12/21 04:32:33;;;;;;;0.40;0.40;;;;;;;;;;8222612;28;20129;-58
2023/12/21 04:36:33;;;;;;;1.20;0.40;;;;;;;;;;8225791;28;20149;-58
2023/12/21 04:40:34;;;;;;;0.50;0.50;;;;;;;;;;8219227;28;20030;-57
2023/12/21 04:44:34;;;;;;;0.40;0.40;;;;;;;;;;8220792;28;20029;-56
2023/12/21 04:48:34;;;;;;;0.40;0.40;;;;;;;;;;8224270;28;20129;-57
2023/12/21 04:52:36;;;;;;;0.40;0.40;;;;;;;;;;8229954;28;20028;-57
2023/12/21 04:56:42;;;;;;;0.40;0.40;;;;;;;;;;8225822;28;20640;-57
2023/12/21 05:00:47;;;;;;;0.40;0.40;;;;;;;;;;8225728;28;20052;-57
2023/12/21 05:04:47;;;;;;;0.40;0.40;;;;;;;;;;8225096;28;20029;-57
2023/12/21 05:08:47;;;;;;;0.40;0.40;;;;;;;;;;8226775;28;20637;-57
2023/12/21 05:12:49;;;;;;;0.40;0.40;;;;;;;;;;8221974;28;20025;-58
2023/12/21 05:16:49;;;;;;;0.50;0.50;;;;;;;;;;8228638;28;20289;-58
2023/12/21 05:20:49;;;;;;;0.47;0.47;;;;;;;;;;8225722;28;20060;-57
2023/12/21 05:24:50;;;;;;;0.30;0.30;;;;;;;;;;8224439;28;20037;-61
2023/12/21 05:28:50;;;;;;;0.45;0.45;;;;;;;;;;8224800;28;20025;-57
2023/12/21 05:32:50;;;;;;;0.47;0.47;;;;;;;;;;8221658;28;20869;-55
2023/12/21 05:36:50;;;;;;;0.40;0.40;;;;;;;;;;8226321;28;20032;-55
2023/12/21 05:40:51;;;;;;;0.40;0.40;;;;;;;;;;8224877;28;20758;-55
2023/12/21 05:44:51;;;;;;;0.87;0.50;;;;;;;;;;8226256;28;20049;-56
2023/12/21 05:48:51;;;;;;;1.08;0.70;;;;;;;;;;8223942;28;20276;-57
2023/12/21 05:52:51;;;;;;;0.60;0.60;;;;;;;;;;8224110;28;20729;-56
2023/12/21 05:56:52;;;;;;;0.63;0.57;;;;;;;;;;8223788;28;20288;-58
2023/12/21 06:00:53;;;;;;;0.40;0.40;;;;;;;;;;8222053;28;20050;-56
2023/12/21 06:04:53;;;;;;;1.85;0.40;;;;;;;;;;8226300;28;20447;-56
2023/12/21 06:08:53;;;;;;;0.75;0.40;;;;;;;;;;8227252;28;20479;-55
2023/12/21 06:12:53;;;;;;;0.50;0.50;;;;;;;;;;8225871;28;20084;-55
2023/12/21 06:16:54;;;;;;;1.35;0.50;;;;;;;;;;8221473;28;20034;-55
2023/12/21 06:20:54;;;;;;;0.50;0.50;;;;;;;;;;8226072;28;20140;-55
2023/12/21 06:24:54;;;;;;;0.60;0.60;;;;;;;;;;8221515;28;20269;-55
2023/12/21 06:28:54;;;;;;;0.40;0.40;;;;;;;;;;8224556;28;20025;-56
2023/12/21 06:32:54;;;;;;;0.43;0.43;;;;;;;;;;8220898;28;20041;-56
2023/12/21 06:36:55;;;;;;;0.50;0.50;;;;;;;;;;8223120;28;20024;-57
2023/12/21 06:40:55;;;;;;;0.40;0.40;;;;;;;;;;8226234;28;20292;-56
2023/12/21 06:44:55;;;;;;;0.40;0.40;;;;;;;;;;8225247;28;20867;-57
2023/12/21 06:48:55;;;;;;;0.57;0.57;;;;;;;;;;8226231;28;20093;-57
2023/12/21 06:52:56;;;;;;;0.63;0.40;;;;;;;;;;8224641;28;20115;-57
2023/12/21 06:56:56;;;;;;;0.40;0.40;;;;;;;;;;8227145;28;20052;-57
2023/12/21 07:00:56;;;;;;;0.40;0.40;;;;;;;;;;8237128;28;20062;-57
2023/12/21 07:04:56;;;;;;;0.40;0.40;;;;;;;;;;8235902;28;20026;-57
2023/12/21 07:08:56;;;;;;;0.45;0.40;;;;;;;;;;8238451;28;20300;-56
2023/12/21 07:12:57;;;;;;;1.45;1.00;;;;;;;;;;8240824;28;20121;-57
2023/12/21 07:16:57;;;;;;;0.73;0.73;;;;;;;;;;8239066;28;20036;-57
2023/12/21 07:20:58;;;;;;;0.45;0.45;;;;;;;;;;8237403;28;20041;-57
2023/12/21 07:24:58;;;;;;;0.40;0.40;;;;;;;;;;8233685;28;20026;-57
2023/12/21 07:28:58;;;;;;;0.50;0.50;;;;;;;;;;8238560;28;20019;-57
2023/12/21 07:32:58;;;;;;;0.47;0.47;;;;;;;;;;8235771;28;20046;-57
2023/12/21 07:36:58;;;;;;;0.55;0.55;;;;;;;;;;8242627;28;20022;-56
2023/12/21 07:40:59;;;;;;;0.40;0.40;;;;;;;;;;8238955;28;20026;-57
2023/12/21 07:44:59;;;;;;;0.50;0.50;;;;;;;;;;8238503;28;20036;-55
2023/12/21 07:48:59;;;;;;;0.40;0.40;;;;;;;;;;8237222;28;20045;-57
2023/12/21 07:53:00;;;;;;;0.30;0.30;;;;;;;;;;8238366;28;20061;-55
2023/12/21 07:57:00;;;;;;;0.38;0.38;;;;;;;;;;8238182;28;20029;-56
2023/12/21 08:01:00;;;;;;;0.40;0.40;;;;;;;;;;8235179;28;20136;-60
2023/12/21 08:05:00;;;;;;;0.30;0.30;;;;;;;;;;8237408;28;20037;-56
2023/12/21 08:09:01;;;;;;;0.40;0.40;;;;;;;;;;8235395;28;20141;-55
2023/12/21 08:13:01;;;;;;;0.40;0.40;;;;;;;;;;8225404;28;20095;-55
2023/12/21 08:17:03;;;;;;;0.50;0.50;;;;;;;;;;8223850;28;20029;-56
2023/12/21 08:21:03;;;;;;;0.60;0.60;;;;;;;;;;8228461;28;20211;-56
2023/12/21 08:25:03;;;;;;;0.40;0.40;;;;;;;;;;8230812;28;20519;-56
2023/12/21 08:29:03;;;;;;;0.50;0.50;;;;;;;;;;8232666;28;20144;-57
2023/12/21 08:33:04;;;;;;;0.40;0.40;;;;;;;;;;8229555;28;20120;-56
2023/12/21 08:37:04;;;;;;;0.40;0.40;;;;;;;;;;8233943;28;20026;-56
2023/12/21 08:41:04;;;;;;;0.43;0.43;;;;;;;;;;8233003;28;20553;-57
2023/12/21 08:45:04;;;;;;;0.43;0.40;;;;;;;;;;8233029;28;20018;-58
2023/12/21 08:49:05;;;;;;;0.65;0.50;;;;;;;;;;8231642;28;20045;-57
2023/12/21 08:53:05;;;;;;;0.30;0.30;;;;;;;;;;8227109;28;20050;-58
2023/12/21 08:57:05;;;;;;;0.30;0.30;;;;;;;;;;8231245;28;20026;-57
2023/12/21 09:01:06;;;;;;;0.40;0.40;;;;;;;;;;8226114;28;20045;-57
2023/12/21 09:05:06;;;;;;;0.57;0.40;;;;;;;;;;8228917;28;20029;-57
2023/12/21 09:09:06;;;;;;;0.40;0.40;;;;;;;;;;8230990;28;20033;-57
2023/12/21 09:13:06;;;;;;;0.43;0.43;;;;;;;;;;8226890;28;20033;-57
2023/12/21 09:17:07;;;;;;;1.10;0.40;;;;;;;;;;8228314;28;21739;-57
2023/12/21 09:21:07;;;;;;;1.23;0.35;;;;;;;;;;8228627;28;21722;-56
2023/12/21 09:25:07;;;;;;;0.30;0.30;;;;;;;;;;8228281;28;21061;-57
2023/12/21 09:29:07;;;;;;;0.30;0.30;;;;;;;;;;8225908;28;21113;-57
2023/12/21 09:33:08;;;;;;;0.32;0.32;;;;;;;;;;8225978;28;22233;-56
2023/12/21 09:37:08;;;;;;;0.37;0.37;;;;;;;;;;8226074;28;20011;-53
2023/12/21 09:41:08;;;;;;;0.40;0.40;;;;;;;;;;8228195;28;20577;-57
2023/12/21 09:45:10;;;;;;;0.30;0.30;;;;;;;;;;8226233;28;20025;-55
2023/12/21 09:49:11;;;;;;;0.30;0.30;;;;;;;;;;8227837;28;20018;-57
2023/12/21 09:53:12;;;;;;;0.30;0.30;;;;;;;;;;8229759;28;20100;-57
2023/12/21 09:57:14;;;;;;;0.52;0.52;;;;;;;;;;8227806;28;21451;-56
2023/12/21 10:01:15;;;;;;;0.32;0.32;;;;;;;;;;8226488;28;20034;-57
2023/12/21 10:05:15;;;;;;;0.82;0.40;;;;;;;;;;8227911;28;20025;-55
2023/12/21 10:09:17;;;;;;;0.50;0.50;;;;;;;;;;8228093;28;20022;-56
2023/12/21 10:13:17;;;;;;;0.30;0.30;;;;;;;;;;8232043;28;20026;-57
2023/12/21 10:17:19;;;;;;;0.30;0.30;;;;;;;;;;8229467;28;20318;-55
2023/12/21 10:21:21;;;;;;;0.40;0.40;;;;;;;;;;8227905;28;20030;-57
2023/12/21 10:25:22;;;;;;;0.40;0.40;;;;;;;;;;8226761;28;20026;-57
2023/12/21 10:29:22;;;;;;;1.25;0.40;;;;;;;;;;8226520;28;20010;-55
2023/12/21 10:33:25;;;;;;;0.40;0.40;;;;;;;;;;8227914;28;20038;-57
2023/12/21 10:37:25;;;;;;;0.40;0.40;;;;;;;;;;8226826;28;20025;-56
2023/12/21 10:41:26;;;;;;;0.40;0.40;;;;;;;;;;8227681;28;20486;-57
2023/12/21 10:45:26;;;;;;;0.40;0.40;;;;;;;;;;8224370;28;20042;-56
2023/12/21 10:49:27;;;;;;;0.38;0.38;;;;;;;;;;8227378;28;20022;-57
2023/12/21 10:53:29;;;;;;;1.10;0.40;;;;;;;;;;8226740;28;21753;-57
2023/12/21 10:57:29;;;;;;;0.47;0.47;;;;;;;;;;8224695;28;20061;-57
2023/12/21 11:01:30;;;;;;;0.40;0.40;;;;;;;;;;8238585;28;20039;-57
2023/12/21 11:05:32;;;;;;;0.35;0.35;;;;;;;;;;8240087;28;20136;-57
2023/12/21 11:09:33;;;;;;;0.40;0.40;;;;;;;;;;8233393;28;20108;-57
2023/12/21 11:13:34;;;;;;;0.50;0.50;;;;;;;;;;8228425;28;20018;-56
2023/12/21 11:17:34;;;;;;;0.50;0.50;;;;;;;;;;8227677;28;20056;-57
2023/12/21 11:21:35;;;;;;;0.50;0.50;;;;;;;;;;8225914;28;20112;-55
2023/12/21 11:25:35;;;;;;;0.40;0.40;;;;;;;;;;8227796;28;20057;-56
2023/12/21 11:29:36;;;;;;;0.50;0.50;;;;;;;;;;8226603;28;20026;-56
2023/12/21 11:33:36;;;;;;;0.40;0.40;;;;;;;;;;8221332;28;20285;-57
2023/12/21 11:37:37;;;;;;;0.30;0.30;;;;;;;;;;8224226;28;20120;-55
2023/12/21 11:41:47;;;;;;;0.52;0.45;;;;;;;;;;8209639;28;20022;-57
2023/12/21 11:45:48;;;;;;;0.40;0.40;;;;;;;;;;8217063;28;20042;-57
2023/12/21 11:49:49;;;;;;;0.32;0.32;;;;;;;;;;8218219;28;20052;-57
2023/12/21 11:53:49;;;;;;;0.30;0.30;;;;;;;;;;8215531;28;20053;-57
2023/12/21 11:57:49;;;;;;;0.30;0.30;;;;;;;;;;8216928;28;20026;-57
2023/12/21 12:01:50;;;;;;;0.30;0.30;;;;;;;;;;8212431;28;20104;-57
2023/12/21 12:05:53;;;;;;;0.40;0.40;;;;;;;;;;8215106;28;20022;-57
2023/12/21 12:09:54;;;;;;;0.40;0.40;;;;;;;;;;8218802;28;20573;-58
2023/12/21 12:13:55;;;;;;;1.57;0.40;;;;;;;;;;8217201;28;20022;-56
2023/12/21 12:17:56;;;;;;;1.17;0.38;;;;;;;;;;8214960;28;21019;-58
2023/12/21 12:21:56;;;;;;;1.10;0.40;;;;;;;;;;8219414;28;20557;-57
2023/12/21 12:25:56;;;;;;;0.30;0.30;;;;;;;;;;8218624;28;20025;-57
2023/12/21 12:29:57;;;;;;;0.40;0.40;;;;;;;;;;8217023;28;20113;-57
2023/12/21 12:33:57;;;;;;;0.40;0.40;;;;;;;;;;8215573;28;20043;-57
2023/12/21 12:37:57;;;;;;;0.30;0.30;;;;;;;;;;8217408;28;20037;-57
2023/12/21 12:41:58;;;;;;;0.40;0.40;;;;;;;;;;8217754;28;20145;-58
2023/12/21 12:45:58;;;;;;;1.38;0.40;;;;;;;;;;8212870;28;20835;-58
2023/12/21 12:49:59;;;;;;;1.65;0.40;;;;;;;;;;8214173;28;20037;-57
2023/12/21 12:54:00;;;;;;;0.77;0.52;;;;;;;;;;8214587;28;20526;-57
2023/12/21 12:58:01;;;;;;;0.30;0.30;;;;;;;;;;8215413;28;20872;-58
2023/12/21 13:02:02;;;;;;;0.50;0.40;;;;;;;;;;8212795;28;20181;-58
2023/12/21 13:06:02;;;;;;;0.32;0.32;;;;;;;;;;8216747;28;20109;-57
2023/12/21 13:10:02;;;;;;;0.43;0.43;;;;;;;;;;8220833;28;20132;-57
2023/12/21 13:14:04;;;;;;;2.78;0.50;;;;;;;;;;8224028;28;20033;-57
2023/12/21 13:18:04;;;;;;;0.30;0.30;;;;;;;;;;8221790;28;20462;-56
2023/12/21 13:22:04;;;;;;;0.30;0.30;;;;;;;;;;8221888;28;20157;-56
2023/12/21 13:26:08;;;;;;;0.30;0.30;;;;;;;;;;8215826;28;20024;-57
2023/12/21 13:30:10;;;;;;;1.75;0.40;;;;;;;;;;8223957;28;20181;-56
2023/12/21 13:34:10;;;;;;;0.40;0.40;;;;;;;;;;8235002;28;20104;-57
2023/12/21 13:38:11;;;;;;;0.30;0.30;;;;;;;;;;8234552;28;20030;-58
2023/12/21 13:42:12;;;;;;;0.30;0.30;;;;;;;;;;8233832;28;20301;-56
2023/12/21 13:46:12;;;;;;;0.47;0.47;;;;;;;;;;8233639;28;20165;-57
2023/12/21 13:50:12;;;;;;;0.30;0.30;;;;;;;;;;8234620;28;22311;-57
2023/12/21 13:54:12;;;;;;;0.53;0.47;;;;;;;;;;8231872;28;20037;-57
2023/12/21 13:58:14;;;;;;;0.30;0.30;;;;;;;;;;8233102;28;20026;-56
2023/12/21 14:02:14;;;;;;;0.40;0.40;;;;;;;;;;8220391;28;20042;-56
2023/12/21 14:06:15;;;;;;;0.40;0.40;;;;;;;;;;8220020;28;20462;-56
2023/12/21 14:10:15;;;;;;;0.30;0.30;;;;;;;;;;8220935;28;20168;-56
2023/12/21 14:14:15;;;;;;;0.30;0.30;;;;;;;;;;8220095;28;20022;-55
2023/12/21 14:18:15;;;;;;;0.38;0.38;;;;;;;;;;8216634;28;20272;-57
2023/12/21 14:22:16;;;;;;;0.40;0.40;;;;;;;;;;8218664;28;20022;-55
2023/12/21 14:26:18;;;;;;;0.40;0.40;;;;;;;;;;8220352;28;20021;-55
2023/12/21 14:30:18;;;;;;;0.50;0.50;;;;;;;;;;8216535;28;20104;-57
2023/12/21 14:34:19;;;;;;;0.40;0.40;;;;;;;;;;8218860;28;20021;-57
2023/12/21 14:38:20;;;;;;;0.38;0.38;;;;;;;;;;8217020;28;20505;-57
2023/12/21 14:42:21;;;;;;;0.40;0.40;;;;;;;;;;8218329;28;20037;-55
2023/12/21 14:46:21;;;;;;;0.70;0.70;;;;;;;;;;8218243;28;20037;-55
2023/12/21 14:50:22;;;;;;;0.60;0.52;;;;;;;;;;8218093;28;20786;-55
2023/12/21 14:54:24;;;;;;;0.93;0.70;;;;;;;;;;8219875;28;20073;-57
2023/12/21 14:58:25;;;;;;;0.50;0.50;;;;;;;;;;8218469;28;20436;-57
2023/12/21 15:02:25;;;;;;;2.42;0.60;;;;;;;;;;8218475;28;20038;-57
2023/12/21 15:06:26;;;;;;;1.05;0.77;;;;;;;;;;8213747;28;20029;-56
2023/12/21 15:10:26;;;;;;;0.52;0.52;;;;;;;;;;8215759;28;20025;-57
2023/12/21 15:14:27;;;;;;;0.70;0.70;;;;;;;;;;8221102;28;20021;-57
2023/12/21 15:18:27;;;;;;;0.90;0.60;;;;;;;;;;8218439;28;20061;-57
2023/12/21 15:22:27;;;;;;;0.70;0.68;;;;;;;;;;8215873;28;20028;-57
2023/12/21 15:26:28;;;;;;;0.73;0.70;;;;;;;;;;8217817;28;20021;-57
2023/12/21 15:30:28;;;;;;;1.00;0.90;;;;;;;;;;8214470;28;20034;-57
2023/12/21 15:34:29;;;;;;;0.75;0.75;;;;;;;;;;8218277;28;20025;-57
2023/12/21 15:38:29;;;;;;;1.33;0.63;;;;;;;;;;8219853;28;20022;-55
2023/12/21 15:42:29;;;;;;;2.50;0.83;;;;;;;;;;8231615;28;20040;-56
2023/12/21 15:46:29;;;;;;;2.35;0.80;;;;;;;;;;8235580;28;20045;-56
2023/12/21 15:50:30;;;;;;;1.48;0.80;;;;;;;;;;8225419;28;20044;-57
2023/12/21 15:54:30;;;;;;;1.45;1.10;;;;;;;;;;8218673;28;20022;-57
2023/12/21 15:58:31;;;;;;;1.17;1.00;;;;;;;;;;8220853;28;20037;-56
2023/12/21 16:02:31;;;;;;;2.03;1.10;;;;;;;;;;8223117;28;20124;-57
2023/12/21 16:06:32;;;;;;;2.00;0.70;;;;;;;;;;8223381;28;20722;-56
2023/12/21 16:10:32;;;;;;;1.15;0.90;;;;;;;;;;8222296;28;20029;-57
2023/12/21 16:14:33;;;;;;;1.63;1.10;;;;;;;;;;8224761;28;20707;-56
2023/12/21 16:18:33;;;;;;;3.37;1.43;;;;;;;;;;8224582;28;20077;-58
2023/12/21 16:22:33;;;;;;;1.25;0.90;;;;;;;;;;8222601;28;20289;-58
2023/12/21 16:26:43;;;;;;;2.53;0.90;;;;;;;;;;8224734;28;20018;-58
2023/12/21 16:30:43;;;;;;;1.38;0.80;;;;;;;;;;8218945;28;20982;-58
2023/12/21 16:34:43;;;;;;;2.67;1.00;;;;;;;;;;8220682;28;20037;-57
2023/12/21 16:38:43;;;;;;;1.88;1.02;;;;;;;;;;8222521;28;20057;-58
2023/12/21 16:42:44;;;;;;;3.95;1.40;;;;;;;;;;8224376;28;20541;-58
2023/12/21 16:46:44;;;;;;;1.75;1.00;;;;;;;;;;8229859;28;20045;-57
2023/12/21 16:50:49;;;;;;;2.37;1.17;;;;;;;;;;8232347;28;20038;-58
2023/12/21 16:54:49;;;;;;;3.35;1.50;;;;;;;;;;8236260;28;20334;-58
2023/12/21 16:58:50;;;;;;;3.35;1.80;;;;;;;;;;8237076;28;20057;-58
2023/12/21 17:02:51;;;;;;;2.03;1.33;;;;;;;;;;8224085;28;20084;-58
2023/12/21 17:06:51;;;;;;;1.35;0.80;;;;;;;;;;8230454;28;20033;-58
2023/12/21 17:10:52;;;;;;;3.90;1.20;;;;;;;;;;8222717;28;20033;-58
2023/12/21 17:14:52;;;;;;;1.67;0.80;;;;;;;;;;8225273;28;20280;-58
2023/12/21 17:18:53;;;;;;;1.95;1.00;;;;;;;;;;8231109;28;20120;-58
2023/12/21 17:22:53;;;;;;;2.55;0.80;;;;;;;;;;8231922;28;20768;-57
2023/12/21 17:26:53;;;;;;;3.00;0.90;;;;;;;;;;8237252;28;20888;-57
2023/12/21 17:30:54;;;;;;;1.17;0.70;;;;;;;;;;8231852;28;22240;-56
2023/12/21 17:34:54;;;;;;;1.80;0.97;;;;;;;;;;8235695;28;20877;-56
2023/12/21 17:38:54;;;;;;;1.40;0.85;;;;;;;;;;8237397;28;20669;-56
2023/12/21 17:42:54;;;;;;;1.67;0.80;;;;;;;;;;8227768;28;20032;-56
2023/12/21 17:46:54;;;;;;;1.63;0.73;;;;;;;;;;8232343;28;20654;-56
2023/12/21 17:50:55;;;;;;;1.98;0.80;;;;;;;;;;8224730;28;20021;-57
2023/12/21 17:54:55;;;;;;;1.13;0.63;;;;;;;;;;8210415;28;20113;-57
2023/12/21 17:58:56;;;;;;;1.95;0.70;;;;;;;;;;8216552;28;20017;-58
2023/12/21 18:02:56;;;;;;;5.43;1.30;;;;;;;;;;8216598;28;20048;-56
2023/12/21 18:06:56;;;;;;;2.97;0.90;;;;;;;;;;8216742;28;20342;-57
2023/12/21 18:10:57;;;;;;;3.05;1.23;;;;;;;;;;8214204;28;20387;-57
2023/12/21 18:14:58;;;;;;;3.08;1.17;;;;;;;;;;8216693;28;20104;-57
2023/12/21 18:19:04;;;;;;;3.50;1.13;;;;;;;;;;8213891;28;20052;-55
2023/12/21 18:23:04;;;;;;;4.25;1.05;;;;;;;;;;8213130;28;20022;-57
2023/12/21 18:27:05;;;;;;;4.73;1.20;;;;;;;;;;8216295;28;20748;-58
2023/12/21 18:31:05;;;;;;;3.55;1.30;;;;;;;;;;8212310;28;20194;-56
2023/12/21 18:35:05;;;;;;;2.28;0.90;;;;;;;;;;8215014;28;21645;-58
2023/12/21 18:39:08;;;;;;;2.67;1.20;;;;;;;;;;8216166;28;20045;-56
2023/12/21 18:43:09;;;;;;;4.25;1.48;;;;;;;;;;8217652;28;20026;-64
2023/12/21 18:47:10;;;;;;;5.00;1.30;;;;;;;;;;8216750;28;20524;-55
2023/12/21 18:51:14;;;;;;;6.60;1.42;;;;;;;;;;8218935;28;20512;-57
2023/12/21 18:55:15;;;;;;;3.75;1.20;;;;;;;;;;8218577;28;20200;-57
2023/12/21 18:59:15;;;;;;;3.28;1.30;;;;;;;;;;8217285;28;20813;-58
2023/12/21 19:03:15;;;;;;;4.10;1.30;;;;;;;;;;8219904;28;20170;-58
2023/12/21 19:07:15;;;;;;;5.32;1.40;;;;;;;;;;8219039;28;20268;-58
2023/12/21 19:11:16;;;;;;;3.47;1.10;;;;;;;;;;8218521;28;20029;-58
2023/12/21 19:15:17;;;;;;;3.83;1.00;;;;;;;;;;8219842;28;20025;-58
2023/12/21 19:19:17;;;;;;;3.70;1.23;;;;;;;;;;8209539;28;20022;-57
2023/12/21 19:23:17;;;;;;;4.00;1.30;;;;;;;;;;8210344;28;20288;-58
2023/12/21 19:27:18;;;;;;;3.90;1.20;;;;;;;;;;8213004;28;20757;-59
2023/12/21 19:31:20;;;;;;;5.53;1.52;;;;;;;;;;8199216;28;20153;-58
2023/12/21 19:35:20;;;;;;;5.00;1.38;;;;;;;;;;8205629;28;20029;-57
2023/12/21 19:39:21;;;;;;;0.67;0.63;;;;;;;;;;8210420;28;20038;-57
2023/12/21 19:43:21;;;;;;;1.55;0.90;;;;;;;;;;8215419;28;20384;-58
2023/12/21 19:47:21;;;;;;;1.50;0.88;;;;;;;;;;8213595;28;20140;-56
2023/12/21 19:51:23;;;;;;;1.73;0.80;;;;;;;;;;8212834;28;20146;-58
2023/12/21 19:55:24;;;;;;;2.45;0.88;;;;;;;;;;8214647;28;20030;-56
2023/12/21 19:59:24;;;;;;;1.73;0.90;;;;;;;;;;8221956;28;20336;-59
2023/12/21 20:03:24;;;;;;;2.10;0.87;;;;;;;;;;8241089;28;20040;-56
2023/12/21 20:07:25;;;;;;;1.92;0.60;;;;;;;;;;8243986;28;20287;-55
2023/12/21 20:11:27;;;;;;;1.85;0.80;;;;;;;;;;8228761;28;20139;-57
2023/12/21 20:15:28;;;;;;;1.20;0.80;;;;;;;;;;8221369;28;20042;-58
2023/12/21 20:19:28;;;;;;;2.87;0.70;;;;;;;;;;8221812;28;20129;-58
2023/12/21 20:23:29;;;;;;;1.35;0.70;;;;;;;;;;8224251;28;20288;-58
2023/12/21 20:27:30;;;;;;;1.38;0.60;;;;;;;;;;8222029;28;20700;-58
2023/12/21 20:31:31;;;;;;;1.63;0.85;;;;;;;;;;8214683;28;20052;-58
2023/12/21 20:35:31;;;;;;;4.60;1.20;;;;;;;;;;8213220;28;20037;-57
2023/12/21 20:39:33;;;;;;;2.80;1.10;;;;;;;;;;8214837;28;20037;-57
2023/12/21 20:43:33;;;;;;;2.28;1.10;;;;;;;;;;8214504;28;20549;-57
2023/12/21 20:47:33;;;;;;;3.30;1.20;;;;;;;;;;8209198;28;20030;-57
2023/12/21 20:51:34;;;;;;;5.03;1.58;;;;;;;;;;8218507;28;20025;-57
2023/12/21 20:55:34;;;;;;;2.05;1.02;;;;;;;;;;8227175;28;20058;-57
2023/12/21 20:59:36;;;;;;;1.40;0.90;;;;;;;;;;8224476;28;20030;-58
2023/12/21 21:03:39;;;;;;;2.83;0.95;;;;;;;;;;8217871;28;20404;-58
2023/12/21 21:07:40;;;;;;;4.45;1.00;;;;;;;;;;8224047;28;20049;-58
2023/12/21 21:11:40;;;;;;;1.77;0.88;;;;;;;;;;8214461;28;20041;-57
2023/12/21 21:15:41;;;;;;;1.60;0.80;;;;;;;;;;8220976;28;21191;-56
2023/12/21 21:19:41;;;;;;;5.22;1.00;;;;;;;;;;8226051;28;20457;-56
2023/12/21 21:23:44;;;;;;;10.80;0.82;;;;;;;;;;8240167;28;20030;-58
2023/12/21 21:27:46;;;;;;;0.88;0.60;;;;;;;;;;8262034;28;20057;-58
2023/12/21 21:31:46;;;;;;;1.08;0.63;;;;;;;;;;8259843;28;20680;-57
2023/12/21 21:35:48;;;;;;;5.95;1.40;;;;;;;;;;8260905;28;20030;-57
2023/12/21 21:39:48;;;;;;;1.55;0.60;;;;;;;;;;8244558;28;20025;-57
2023/12/21 21:43:48;;;;;;;0.88;0.68;;;;;;;;;;8222326;28;20144;-57
2023/12/21 21:47:48;;;;;;;2.87;0.70;;;;;;;;;;8227264;28;20038;-58
2023/12/21 21:51:49;;;;;;;1.30;0.57;;;;;;;;;;8226223;28;20268;-58
2023/12/21 21:55:49;;;;;;;2.75;0.90;;;;;;;;;;8231693;28;20565;-57
2023/12/21 21:59:49;;;;;;;1.20;0.63;;;;;;;;;;8241001;28;20053;-57
2023/12/21 22:03:50;;;;;;;5.95;1.10;;;;;;;;;;8256337;28;20052;-58
2023/12/21 22:07:50;;;;;;;3.08;0.98;;;;;;;;;;8261031;28;20018;-57
2023/12/21 22:11:50;;;;;;;5.78;1.20;;;;;;;;;;8264267;28;20546;-56
2023/12/21 22:15:51;;;;;;;3.08;0.95;;;;;;;;;;8264158;28;20467;-57
2023/12/21 22:19:51;;;;;;;2.75;0.88;;;;;;;;;;8261401;28;20037;-57
2023/12/21 22:23:51;;;;;;;4.18;1.60;;;;;;;;;;8253138;28;20042;-57
2023/12/21 22:27:51;;;;;;;3.67;1.13;;;;;;;;;;8257104;28;20041;-57
2023/12/21 22:31:51;;;;;;;4.35;1.40;;;;;;;;;;8222391;28;20049;-56
2023/12/21 22:35:52;;;;;;;4.70;1.10;;;;;;;;;;8223282;28;22960;-56
2023/12/21 22:39:52;;;;;;;7.57;1.20;;;;;;;;;;8219851;28;20315;-57
2023/12/21 22:43:52;;;;;;;6.63;1.27;;;;;;;;;;8222800;28;20739;-57
2023/12/21 22:47:53;;;;;;;6.73;1.23;;;;;;;;;;8224364;28;20037;-57
2023/12/21 22:51:53;;;;;;;2.20;0.85;;;;;;;;;;8222205;28;20305;-57
2023/12/21 22:55:53;;;;;;;1.27;0.80;;;;;;;;;;8221192;28;20041;-57
2023/12/21 22:59:53;;;;;;;2.10;0.65;;;;;;;;;;8214936;28;20034;-57
2023/12/21 23:03:53;;;;;;;1.30;0.70;;;;;;;;;;8221223;28;21151;-58
2023/12/21 23:07:54;;;;;;;0.57;0.50;;;;;;;;;;8222152;28;21182;-58
2023/12/21 23:11:54;;;;;;;2.80;0.80;;;;;;;;;;8222766;28;21569;-58
2023/12/21 23:15:54;;;;;;;2.83;0.40;;;;;;;;;;8222369;28;20404;-57
2023/12/21 23:19:55;;;;;;;0.40;0.40;;;;;;;;;;8218721;28;20034;-57
2023/12/21 23:23:55;;;;;;;0.80;0.47;;;;;;;;;;8219823;28;20037;-57
2023/12/21 23:27:55;;;;;;;0.77;0.70;;;;;;;;;;8225607;28;20022;-58
2023/12/21 23:31:55;;;;;;;2.72;0.43;;;;;;;;;;8223978;28;22264;-57
2023/12/21 23:35:55;;;;;;;2.78;0.70;;;;;;;;;;8223464;28;20033;-58
2023/12/21 23:39:56;;;;;;;1.63;0.60;;;;;;;;;;8224078;28;20032;-59
2023/12/21 23:43:56;;;;;;;1.08;0.50;;;;;;;;;;8229850;28;21375;-58
2023/12/21 23:47:56;;;;;;;1.27;0.57;;;;;;;;;;8231860;28;20046;-59
2023/12/21 23:51:56;;;;;;;0.45;0.43;;;;;;;;;;8223418;28;20029;-58
2023/12/21 23:55:56;;;;;;;0.40;0.40;;;;;;;;;;8219758;28;20681;-58
2023/12/21 23:59:57;;;;;;;0.40;0.40;;;;;;;;;;8214789;28;20300;-58
